Time;durP1;ratioP1;P1;durP2;ratioP2;P2;SDS_P1;SDS_P2;PMS_P1;PMS_P2;Temp;Humidity;BMP_temperature;BMP_pressure;BME280_temperature;BME280_humidity;BME280_pressure;Samples;Min_cycle;Max_cycle;Signal;HPM_P1;HPM_P2
2022/03/18 00:02:14;;;;;;;;;;;22.70;30.90;;;;;;4874896;29;19980;-60
2022/03/18 00:04:41;;;;;;;;;;;22.60;30.90;;;;;;4874687;29;20490;-60
2022/03/18 00:07:09;;;;;;;;;;;22.60;30.90;;;;;;4873739;29;19983;-60
2022/03/18 00:09:36;;;;;;;;;;;22.60;30.90;;;;;;4874345;29;20154;-61
2022/03/18 00:12:03;;;;;;;;;;;22.60;30.90;;;;;;4889086;29;20218;-60
2022/03/18 00:14:30;;;;;;;;;;;22.60;30.90;;;;;;4873279;29;20111;-61
2022/03/18 00:16:58;;;;;;;;;;;22.60;30.90;;;;;;4874490;29;19983;-60
2022/03/18 00:19:27;;;;;;;;;;;22.50;30.90;;;;;;4874412;29;19983;-60
2022/03/18 00:22:01;;;;;;;;;;;22.60;30.90;;;;;;4874241;29;19928;-60
2022/03/18 00:24:28;;;;;;;;;;;22.60;31.00;;;;;;4874201;29;20317;-60
2022/03/18 00:26:55;;;;;;;;;;;22.60;30.90;;;;;;4874523;29;19936;-60
2022/03/18 00:29:22;;;;;;;;;;;22.50;30.90;;;;;;4873791;29;19967;-60
2022/03/18 00:31:49;;;;;;;;;;;22.50;30.90;;;;;;4874292;29;20233;-60
2022/03/18 00:34:16;;;;;;;;;;;22.50;30.90;;;;;;4873995;29;19962;-60
2022/03/18 00:36:43;;;;;;;;;;;22.50;30.90;;;;;;4874252;29;20339;-60
2022/03/18 00:39:10;;;;;;;;;;;22.50;31.00;;;;;;4874260;29;20393;-60
2022/03/18 00:41:37;;;;;;;;;;;22.50;31.00;;;;;;4874038;29;19927;-61
2022/03/18 00:44:04;;;;;;;;;;;22.50;30.90;;;;;;4873959;29;20298;-60
2022/03/18 00:46:31;;;;;;;;;;;22.50;30.90;;;;;;4874378;29;19982;-60
2022/03/18 00:54:33;;;;;;;;;;;22.50;30.90;;;;;;4873778;29;20393;-60
2022/03/18 00:57:00;;;;;;;;;;;22.50;30.90;;;;;;4873763;29;19928;-60
2022/03/18 00:59:28;;;;;;;;;;;22.50;31.00;;;;;;4873859;29;20412;-61
2022/03/18 01:01:56;;;;;;;;;;;22.50;30.90;;;;;;4873580;29;19960;-61
2022/03/18 01:04:24;;;;;;;;;;;22.50;30.90;;;;;;4873622;29;20074;-60
2022/03/18 01:06:55;;;;;;;;;;;22.50;30.90;;;;;;4873805;29;19931;-60
2022/03/18 01:09:22;;;;;;;;;;;22.40;30.90;;;;;;4874160;29;20007;-60
2022/03/18 01:11:50;;;;;;;;;;;22.50;31.00;;;;;;4873495;29;20184;-60
2022/03/18 01:14:18;;;;;;;;;;;22.50;31.00;;;;;;4873637;29;20011;-60
2022/03/18 01:16:45;;;;;;;;;;;22.40;30.90;;;;;;4873702;29;19975;-60
2022/03/18 01:19:12;;;;;;;;;;;22.40;30.90;;;;;;4873683;29;20349;-60
2022/03/18 01:21:39;;;;;;;;;;;22.40;30.90;;;;;;4873669;29;19936;-60
2022/03/18 01:24:06;;;;;;;;;;;22.40;31.00;;;;;;4873377;29;19928;-60
2022/03/18 01:26:33;;;;;;;;;;;22.40;30.90;;;;;;4872568;29;20389;-60
2022/03/18 01:29:00;;;;;;;;;;;22.40;30.90;;;;;;4873188;29;19928;-60
2022/03/18 01:31:27;;;;;;;;;;;22.40;30.90;;;;;;4873248;29;19976;-60
2022/03/18 01:33:54;;;;;;;;;;;22.40;31.50;;;;;;4877096;29;19927;-60
2022/03/18 01:36:21;;;;;;;;;;;22.40;30.90;;;;;;4891340;29;20473;-61
2022/03/18 01:38:48;;;;;;;;;;;22.40;30.90;;;;;;4891863;29;20385;-60
2022/03/18 01:41:15;;;;;;;;;;;22.40;30.90;;;;;;4891568;29;20349;-60
2022/03/18 01:43:44;;;;;;;;;;;22.40;30.90;;;;;;4891710;29;19931;-60
2022/03/18 01:46:13;;;;;;;;;;;22.40;30.90;;;;;;4891846;29;19990;-60
2022/03/18 01:48:40;;;;;;;;;;;22.40;30.90;;;;;;4891307;29;19927;-60
2022/03/18 01:51:07;;;;;;;;;;;22.40;30.90;;;;;;4891740;29;19927;-60
2022/03/18 01:53:35;;;;;;;;;;;22.40;30.90;;;;;;4891692;29;19928;-60
2022/03/18 01:56:03;;;;;;;;;;;22.40;30.90;;;;;;4891152;29;19987;-60
2022/03/18 01:58:30;;;;;;;;;;;22.40;30.90;;;;;;4891205;29;19927;-60
2022/03/18 02:00:57;;;;;;;;;;;22.40;30.90;;;;;;4891315;29;19970;-61
2022/03/18 02:03:24;;;;;;;;;;;22.40;30.90;;;;;;4891965;29;19928;-60
2022/03/18 02:05:51;;;;;;;;;;;22.40;30.90;;;;;;4891337;29;19931;-61
2022/03/18 02:08:20;;;;;;;;;;;22.40;30.90;;;;;;4890927;29;19927;-60
2022/03/18 02:10:47;;;;;;;;;;;22.40;30.90;;;;;;4891035;29;20062;-60
2022/03/18 02:13:13;;;;;;;;;;;22.40;30.90;;;;;;4891228;29;19931;-60
2022/03/18 02:15:40;;;;;;;;;;;22.40;30.90;;;;;;4891250;29;19931;-61
2022/03/18 02:18:08;;;;;;;;;;;22.40;30.90;;;;;;4890760;29;19953;-60
2022/03/18 02:20:35;;;;;;;;;;;22.40;30.90;;;;;;4889730;29;20398;-60
2022/03/18 02:23:02;;;;;;;;;;;22.40;30.90;;;;;;4890762;29;20179;-60
2022/03/18 02:25:29;;;;;;;;;;;22.40;30.90;;;;;;4890513;29;19983;-60
2022/03/18 02:27:58;;;;;;;;;;;22.40;30.90;;;;;;4891383;29;19931;-61
2022/03/18 02:30:26;;;;;;;;;;;22.40;30.90;;;;;;4890643;29;19967;-60
2022/03/18 02:32:54;;;;;;;;;;;22.40;30.90;;;;;;4890766;29;19928;-61
2022/03/18 02:35:21;;;;;;;;;;;22.40;30.90;;;;;;4889714;29;19927;-61
2022/03/18 02:37:48;;;;;;;;;;;22.40;30.90;;;;;;4890179;29;20434;-60
2022/03/18 02:40:15;;;;;;;;;;;22.30;30.80;;;;;;4890982;29;19974;-60
2022/03/18 02:42:44;;;;;;;;;;;22.40;30.90;;;;;;4891195;29;19985;-60
2022/03/18 02:45:11;;;;;;;;;;;22.40;30.90;;;;;;4891389;29;19958;-60
2022/03/18 02:47:38;;;;;;;;;;;22.40;30.80;;;;;;4890325;29;20338;-60
2022/03/18 02:50:06;;;;;;;;;;;22.40;30.80;;;;;;4890713;29;20186;-60
2022/03/18 02:52:34;;;;;;;;;;;22.40;30.80;;;;;;4890673;29;19931;-60
2022/03/18 02:55:01;;;;;;;;;;;22.40;30.80;;;;;;4890306;29;19975;-60
2022/03/18 02:57:32;;;;;;;;;;;22.40;30.80;;;;;;4890406;29;20346;-60
2022/03/18 02:59:59;;;;;;;;;;;22.40;30.80;;;;;;4890955;29;20009;-60
2022/03/18 03:02:26;;;;;;;;;;;22.40;30.90;;;;;;4890320;29;19927;-60
2022/03/18 03:10:29;;;;;;;;;;;22.30;30.80;;;;;;4890891;29;19999;-61
2022/03/18 03:13:01;;;;;;;;;;;22.30;30.80;;;;;;4890718;29;19928;-60
2022/03/18 03:15:28;;;;;;;;;;;22.30;30.80;;;;;;4891007;29;19927;-60
2022/03/18 03:17:55;;;;;;;;;;;22.30;30.80;;;;;;4890565;29;19928;-60
2022/03/18 03:20:22;;;;;;;;;;;22.30;30.80;;;;;;4890498;29;20006;-60
2022/03/18 03:22:49;;;;;;;;;;;22.30;30.80;;;;;;4890340;29;20456;-60
2022/03/18 03:25:16;;;;;;;;;;;22.30;31.30;;;;;;4890511;29;20326;-60
2022/03/18 03:27:43;;;;;;;;;;;22.30;30.80;;;;;;4890033;29;20386;-60
2022/03/18 03:30:10;;;;;;;;;;;22.30;30.80;;;;;;4889944;29;20400;-60
2022/03/18 03:32:38;;;;;;;;;;;22.30;30.80;;;;;;4890721;29;20302;-61
2022/03/18 03:35:05;;;;;;;;;;;22.30;30.80;;;;;;4890436;29;20618;-61
2022/03/18 03:37:32;;;;;;;;;;;22.30;30.70;;;;;;4889950;29;19983;-60
2022/03/18 03:39:59;;;;;;;;;;;22.30;30.70;;;;;;4890795;29;19931;-60
2022/03/18 03:42:26;;;;;;;;;;;22.30;30.70;;;;;;4890509;29;20027;-60
2022/03/18 03:44:53;;;;;;;;;;;22.30;30.80;;;;;;4890160;29;19931;-60
2022/03/18 03:47:20;;;;;;;;;;;22.30;30.80;;;;;;4890456;29;19975;-60
2022/03/18 03:49:47;;;;;;;;;;;22.30;30.70;;;;;;4892473;29;19970;-60
2022/03/18 03:52:14;;;;;;;;;;;22.30;30.80;;;;;;4893854;29;19932;-60
2022/03/18 03:54:42;;;;;;;;;;;22.30;30.80;;;;;;4893477;29;20286;-60
2022/03/18 03:57:09;;;;;;;;;;;22.30;30.90;;;;;;4893791;29;20190;-61
2022/03/18 03:59:36;;;;;;;;;;;22.30;30.90;;;;;;4893499;29;20150;-60
2022/03/18 04:02:03;;;;;;;;;;;22.30;30.90;;;;;;4893102;29;19931;-60
2022/03/18 04:04:32;;;;;;;;;;;22.30;30.90;;;;;;4893929;29;19932;-61
2022/03/18 04:06:59;;;;;;;;;;;22.30;31.00;;;;;;4895961;29;19928;-65
2022/03/18 04:09:26;;;;;;;;;;;22.20;31.00;;;;;;4896947;29;19931;-65
2022/03/18 04:11:53;;;;;;;;;;;22.20;31.00;;;;;;4896969;29;19971;-66
2022/03/18 04:14:20;;;;;;;;;;;22.30;31.10;;;;;;4897104;29;19931;-65
2022/03/18 04:16:47;;;;;;;;;;;22.20;31.10;;;;;;4897005;29;19991;-64
2022/03/18 04:19:14;;;;;;;;;;;22.30;31.20;;;;;;4896615;29;19936;-64
2022/03/18 04:21:42;;;;;;;;;;;22.30;31.30;;;;;;4896824;29;19932;-64
2022/03/18 04:24:09;;;;;;;;;;;22.30;31.30;;;;;;4896540;29;19927;-64
2022/03/18 04:26:41;;;;;;;;;;;22.30;31.40;;;;;;4896104;29;19931;-65
2022/03/18 04:29:08;;;;;;;;;;;22.30;31.40;;;;;;4896826;29;20290;-64
2022/03/18 04:31:35;;;;;;;;;;;22.30;31.40;;;;;;4896272;29;19975;-64
2022/03/18 04:34:03;;;;;;;;;;;22.30;31.40;;;;;;4896560;29;20314;-64
2022/03/18 04:36:30;;;;;;;;;;;22.30;31.40;;;;;;4896699;29;19932;-64
2022/03/18 04:38:57;;;;;;;;;;;22.30;31.40;;;;;;4896405;29;19927;-64
2022/03/18 04:41:25;;;;;;;;;;;22.30;31.40;;;;;;4883659;29;20026;-65
2022/03/18 04:43:52;;;;;;;;;;;22.20;31.30;;;;;;4877246;29;20378;-64
2022/03/18 04:46:19;;;;;;;;;;;22.20;31.30;;;;;;4877682;29;19928;-64
2022/03/18 04:48:46;;;;;;;;;;;22.20;31.20;;;;;;4877363;29;19938;-64
2022/03/18 04:51:13;;;;;;;;;;;22.20;31.20;;;;;;4877982;29;19927;-64
2022/03/18 04:53:42;;;;;;;;;;;22.20;31.20;;;;;;4881269;29;19928;-65
2022/03/18 04:57:15;;;;;;;;;;;22.20;31.10;;;;;;4880298;29;19927;-64
2022/03/18 04:58:57;;;;;;;;;;;22.20;31.10;;;;;;4880287;29;19928;-64
2022/03/18 05:01:26;;;;;;;;;;;22.20;31.10;;;;;;4879453;29;19970;-64
2022/03/18 05:03:54;;;;;;;;;;;22.20;31.00;;;;;;4879856;29;19938;-64
2022/03/18 05:06:21;;;;;;;;;;;22.20;31.00;;;;;;4878924;29;19947;-64
2022/03/18 05:08:48;;;;;;;;;;;22.20;31.00;;;;;;4881480;29;20429;-65
2022/03/18 05:11:15;;;;;;;;;;;22.20;31.00;;;;;;4882941;29;20290;-65
2022/03/18 05:13:42;;;;;;;;;;;22.20;31.00;;;;;;4876578;29;20366;-64
2022/03/18 05:16:09;;;;;;;;;;;22.20;31.00;;;;;;4877163;29;20366;-64
2022/03/18 05:18:36;;;;;;;;;;;22.30;31.10;;;;;;4876399;29;19971;-64
2022/03/18 05:21:03;;;;;;;;;;;22.20;31.00;;;;;;4876881;29;20358;-64
2022/03/18 05:23:32;;;;;;;;;;;22.20;31.00;;;;;;4876621;29;19928;-64
2022/03/18 05:25:59;;;;;;;;;;;22.20;31.00;;;;;;4876850;29;19928;-63
2022/03/18 05:28:26;;;;;;;;;;;22.20;31.00;;;;;;4876848;29;20275;-65
2022/03/18 05:30:53;;;;;;;;;;;22.20;31.00;;;;;;4876231;29;19967;-64
2022/03/18 05:33:21;;;;;;;;;;;22.20;31.00;;;;;;4875219;29;19928;-65
2022/03/18 05:35:48;;;;;;;;;;;22.20;31.00;;;;;;4877113;29;20210;-63
2022/03/18 05:38:15;;;;;;;;;;;22.20;31.00;;;;;;4875950;29;19987;-64
2022/03/18 05:40:42;;;;;;;;;;;22.20;31.00;;;;;;4876350;29;20505;-64
2022/03/18 05:43:09;;;;;;;;;;;22.20;31.00;;;;;;4873165;29;19928;-64
2022/03/18 05:45:36;;;;;;;;;;;22.20;31.00;;;;;;4875946;29;19932;-64
2022/03/18 05:48:06;;;;;;;;;;;22.30;31.00;;;;;;4881170;29;20437;-63
2022/03/18 05:50:33;;;;;;;;;;;22.30;31.00;;;;;;4883327;29;19931;-64
2022/03/18 05:53:00;;;;;;;;;;;22.30;31.00;;;;;;4876162;29;20617;-64
2022/03/18 05:58:14;;;;;;;;;;;22.30;31.00;;;;;;4863853;29;20535;-64
2022/03/18 06:00:42;;;;;;;;;;;22.30;31.00;;;;;;4859092;29;19932;-65
2022/03/18 06:03:10;;;;;;;;;;;22.30;31.00;;;;;;4868548;29;19927;-65
2022/03/18 06:05:38;;;;;;;;;;;22.30;31.00;;;;;;4876043;29;19927;-64
2022/03/18 06:13:38;;;;;;;;;;;22.40;30.80;;;;;;4872993;29;19935;-64
2022/03/18 06:16:05;;;;;;;;;;;22.40;30.70;;;;;;4867969;29;20019;-60
2022/03/18 06:18:38;;;;;;;;;;;22.40;30.70;;;;;;4872401;29;19927;-64
2022/03/18 06:21:06;;;;;;;;;;;22.40;30.70;;;;;;4874632;29;19995;-62
2022/03/18 06:23:34;;;;;;;;;;;22.40;30.80;;;;;;4873302;29;20031;-62
2022/03/18 06:26:01;;;;;;;;;;;22.50;30.80;;;;;;4862839;29;19943;-61
2022/03/18 06:28:28;;;;;;;;;;;22.50;30.70;;;;;;4870303;29;19953;-64
2022/03/18 06:30:55;;;;;;;;;;;22.60;30.70;;;;;;4866439;29;19983;-61
2022/03/18 06:33:23;;;;;;;;;;;22.70;30.70;;;;;;4861257;29;20026;-61
2022/03/18 06:35:51;;;;;;;;;;;22.70;30.70;;;;;;4867378;29;19932;-64
2022/03/18 06:38:18;;;;;;;;;;;22.80;30.60;;;;;;4864941;29;19931;-61
2022/03/18 06:40:45;;;;;;;;;;;22.90;30.50;;;;;;4862849;29;19984;-61
2022/03/18 06:43:12;;;;;;;;;;;22.90;30.30;;;;;;4862006;29;20282;-60
2022/03/18 06:45:41;;;;;;;;;;;23.00;30.30;;;;;;4861608;29;20147;-66
2022/03/18 06:51:40;;;;;;;;;;;23.20;30.20;;;;;;4864138;29;19971;-67
2022/03/18 06:54:07;;;;;;;;;;;23.30;30.00;;;;;;4863603;29;19979;-64
2022/03/18 06:56:38;;;;;;;;;;;23.40;30.00;;;;;;4864008;29;19932;-64
2022/03/18 06:59:05;;;;;;;;;;;23.50;29.90;;;;;;4864576;29;19928;-64
2022/03/18 07:01:33;;;;;;;;;;;23.50;29.80;;;;;;4864252;29;19935;-62
2022/03/18 07:04:00;;;;;;;;;;;23.60;29.80;;;;;;4867835;29;19971;-63
2022/03/18 07:06:27;;;;;;;;;;;23.70;30.00;;;;;;4856866;29;19928;-63
2022/03/18 07:08:54;;;;;;;;;;;23.70;30.00;;;;;;4855240;29;20437;-62
2022/03/18 07:11:21;;;;;;;;;;;23.80;30.40;;;;;;4861919;29;19931;-63
2022/03/18 07:13:48;;;;;;;;;;;23.90;30.50;;;;;;4861566;29;20019;-63
2022/03/18 07:19:03;;;;;;;;;;;24.00;30.40;;;;;;4865884;29;19935;-61
2022/03/18 07:21:31;;;;;;;;;;;24.10;30.30;;;;;;4870055;29;20320;-59
2022/03/18 07:23:58;;;;;;;;;;;24.20;30.30;;;;;;4866553;29;20369;-63
2022/03/18 07:26:25;;;;;;;;;;;24.30;30.30;;;;;;4868512;29;19990;-60
2022/03/18 07:28:52;;;;;;;;;;;24.30;30.30;;;;;;4868019;29;19992;-63
2022/03/18 07:31:20;;;;;;;;;;;24.40;30.30;;;;;;4866136;29;19936;-59
2022/03/18 07:33:47;;;;;;;;;;;24.50;30.10;;;;;;4871809;29;19950;-59
2022/03/18 07:36:14;;;;;;;;;;;24.50;30.00;;;;;;4870241;29;19942;-59
2022/03/18 07:38:43;;;;;;;;;;;24.60;29.90;;;;;;4870796;29;19938;-62
2022/03/18 07:41:10;;;;;;;;;;;24.70;29.80;;;;;;4868457;29;19935;-60
2022/03/18 07:43:37;;;;;;;;;;;24.80;29.80;;;;;;4871014;29;20044;-63
2022/03/18 07:46:05;;;;;;;;;;;24.80;29.70;;;;;;4868747;29;20031;-61
2022/03/18 07:48:40;;;;;;;;;;;24.90;29.70;;;;;;4870650;29;19946;-60
2022/03/18 07:51:10;;;;;;;;;;;25.00;29.70;;;;;;4867927;29;20007;-64
2022/03/18 07:53:37;;;;;;;;;;;25.10;29.70;;;;;;4869567;29;19928;-60
2022/03/18 07:56:04;;;;;;;;;;;25.10;29.50;;;;;;4867756;29;20076;-58
2022/03/18 07:58:31;;;;;;;;;;;25.20;29.40;;;;;;4865620;29;19927;-59
2022/03/18 08:00:58;;;;;;;;;;;25.30;29.30;;;;;;4866420;29;19932;-59
2022/03/18 08:03:26;;;;;;;;;;;25.30;29.10;;;;;;4884821;29;20023;-58
2022/03/18 08:05:54;;;;;;;;;;;25.40;29.10;;;;;;4869326;29;20729;-62
2022/03/18 08:08:21;;;;;;;;;;;25.40;29.40;;;;;;4867835;29;19928;-59
2022/03/18 08:10:48;;;;;;;;;;;25.50;29.20;;;;;;4869244;29;20130;-61
2022/03/18 08:13:15;;;;;;;;;;;25.50;29.00;;;;;;4872170;29;20404;-58
2022/03/18 08:15:44;;;;;;;;;;;25.60;28.90;;;;;;4865408;29;20035;-58
2022/03/18 08:18:13;;;;;;;;;;;25.60;29.10;;;;;;4868646;29;19928;-61
2022/03/18 08:20:40;;;;;;;;;;;25.70;29.10;;;;;;4861565;29;20524;-58
2022/03/18 08:23:08;;;;;;;;;;;25.70;29.00;;;;;;4864465;29;20003;-58
2022/03/18 08:25:35;;;;;;;;;;;25.70;28.90;;;;;;4871442;29;20034;-58
2022/03/18 08:28:05;;;;;;;;;;;25.80;29.10;;;;;;4870973;29;20310;-61
2022/03/18 08:30:33;;;;;;;;;;;25.90;29.10;;;;;;4873424;29;19997;-59
2022/03/18 08:33:00;;;;;;;;;;;25.90;29.00;;;;;;4868974;29;19959;-62
2022/03/18 08:35:27;;;;;;;;;;;26.00;29.00;;;;;;4863183;29;19935;-58
2022/03/18 08:37:57;;;;;;;;;;;25.90;29.10;;;;;;4863886;29;19979;-62
2022/03/18 08:40:26;;;;;;;;;;;25.90;29.10;;;;;;4871891;29;19932;-58
2022/03/18 08:42:54;;;;;;;;;;;26.00;29.10;;;;;;4869285;29;19927;-61
2022/03/18 08:45:21;;;;;;;;;;;26.00;29.10;;;;;;4868709;29;19943;-58
2022/03/18 08:47:48;;;;;;;;;;;26.00;28.90;;;;;;4868130;29;19959;-58
2022/03/18 08:50:15;;;;;;;;;;;26.00;29.00;;;;;;4864927;29;20015;-58
2022/03/18 08:52:45;;;;;;;;;;;26.00;29.00;;;;;;4863596;29;20046;-62
2022/03/18 08:55:13;;;;;;;;;;;26.00;28.90;;;;;;4869399;29;20473;-58
2022/03/18 08:57:40;;;;;;;;;;;26.00;28.80;;;;;;4865122;29;20655;-61
2022/03/18 09:00:08;;;;;;;;;;;26.00;28.80;;;;;;4868314;29;19932;-61
2022/03/18 09:02:35;;;;;;;;;;;26.00;28.90;;;;;;4867821;29;19932;-58
2022/03/18 09:05:04;;;;;;;;;;;26.00;28.90;;;;;;4869740;29;20004;-61
2022/03/18 09:07:31;;;;;;;;;;;26.10;28.90;;;;;;4865773;29;19946;-59
2022/03/18 09:09:59;;;;;;;;;;;26.10;28.90;;;;;;4867416;29;19959;-61
2022/03/18 09:12:26;;;;;;;;;;;26.20;28.80;;;;;;4868572;29;20388;-62
2022/03/18 09:14:53;;;;;;;;;;;26.20;28.80;;;;;;4869706;29;20023;-58
2022/03/18 09:17:23;;;;;;;;;;;26.20;28.80;;;;;;4870011;29;19980;-61
2022/03/18 09:19:50;;;;;;;;;;;26.30;28.90;;;;;;4872822;29;19923;-58
2022/03/18 09:22:19;;;;;;;;;;;26.30;28.80;;;;;;4862535;29;19984;-62
2022/03/18 09:24:46;;;;;;;;;;;26.30;28.80;;;;;;4865689;29;20026;-58
2022/03/18 09:27:14;;;;;;;;;;;26.30;28.70;;;;;;4870167;29;19932;-61
2022/03/18 09:29:42;;;;;;;;;;;26.40;28.70;;;;;;4867846;29;19936;-57
2022/03/18 09:32:09;;;;;;;;;;;26.40;28.70;;;;;;4866260;29;19931;-62
2022/03/18 09:34:36;;;;;;;;;;;26.40;28.60;;;;;;4861817;29;19974;-62
2022/03/18 09:37:03;;;;;;;;;;;26.40;28.60;;;;;;4870195;29;20315;-59
2022/03/18 09:39:31;;;;;;;;;;;26.50;28.60;;;;;;4870418;29;20827;-62
2022/03/18 09:42:03;;;;;;;;;;;26.50;28.50;;;;;;4879800;29;19967;-60
2022/03/18 09:44:36;;;;;;;;;;;26.50;28.50;;;;;;4863010;29;19927;-59
2022/03/18 09:47:05;;;;;;;;;;;26.50;28.50;;;;;;4864898;29;19927;-58
2022/03/18 09:49:32;;;;;;;;;;;26.50;28.50;;;;;;4866653;29;19928;-59
2022/03/18 09:52:03;;;;;;;;;;;26.50;28.50;;;;;;4869105;29;19936;-65
2022/03/18 09:54:31;;;;;;;;;;;26.50;28.50;;;;;;4859850;29;19988;-63
2022/03/18 09:56:58;;;;;;;;;;;26.50;28.30;;;;;;4866274;29;20636;-59
2022/03/18 09:59:27;;;;;;;;;;;26.60;28.20;;;;;;4869553;29;20072;-58
2022/03/18 10:04:59;;;;;;;;;;;26.60;28.90;;;;;;4861729;29;19936;-58
2022/03/18 10:07:27;;;;;;;;;;;26.50;28.70;;;;;;4864421;29;19935;-59
2022/03/18 10:10:05;;;;;;;;;;;26.50;28.60;;;;;;4866078;29;20058;-59
2022/03/18 10:12:36;;;;;;;;;;;26.50;28.50;;;;;;4862897;29;21342;-59
2022/03/18 10:15:05;;;;;;;;;;;26.50;28.60;;;;;;4863422;29;19958;-59
2022/03/18 10:17:44;;;;;;;;;;;26.60;28.70;;;;;;4863384;29;19935;-59
2022/03/18 10:20:32;;;;;;;;;;;26.50;28.40;;;;;;4864936;29;20442;-58
2022/03/18 10:23:19;;;;;;;;;;;26.60;28.40;;;;;;4866121;29;20751;-59
2022/03/18 10:25:56;;;;;;;;;;;26.50;28.40;;;;;;4861160;29;20393;-59
2022/03/18 10:28:40;;;;;;;;;;;26.60;28.40;;;;;;4877922;29;19932;-59
2022/03/18 10:31:19;;;;;;;;;;;26.60;28.40;;;;;;4864214;29;20728;-59
2022/03/18 10:37:05;;;;;;;;;;;26.50;28.10;;;;;;4864111;29;19932;-58
2022/03/18 10:39:35;;;;;;;;;;;26.60;28.30;;;;;;4864294;29;19936;-58
2022/03/18 10:42:04;;;;;;;;;;;26.60;28.30;;;;;;4867840;29;19960;-60
2022/03/18 10:44:43;;;;;;;;;;;26.60;28.20;;;;;;4864759;29;19983;-59
2022/03/18 10:47:32;;;;;;;;;;;26.60;28.10;;;;;;4866406;29;19947;-60
2022/03/18 10:50:14;;;;;;;;;;;26.60;28.20;;;;;;4869484;29;20858;-59
2022/03/18 10:53:01;;;;;;;;;;;26.60;28.10;;;;;;4873695;29;19998;-58
2022/03/18 10:55:36;;;;;;;;;;;26.60;28.20;;;;;;4853483;29;19923;-59
2022/03/18 10:58:08;;;;;;;;;;;26.60;27.90;;;;;;4865713;29;20279;-59
2022/03/18 11:00:35;;;;;;;;;;;26.60;27.80;;;;;;4869474;29;19932;-60
2022/03/18 11:03:03;;;;;;;;;;;26.60;27.90;;;;;;4867673;29;19928;-59
2022/03/18 11:05:35;;;;;;;;;;;26.60;27.90;;;;;;4866935;29;19931;-59
2022/03/18 11:08:03;;;;;;;;;;;26.50;27.90;;;;;;4870932;29;19987;-63
2022/03/18 11:13:20;;;;;;;;;;;26.50;27.70;;;;;;4873231;29;19962;-66
2022/03/18 11:15:49;;;;;;;;;;;26.50;27.60;;;;;;4871737;29;19939;-63
2022/03/18 11:18:16;;;;;;;;;;;26.30;27.50;;;;;;4869351;29;20450;-63
2022/03/18 11:20:44;;;;;;;;;;;26.30;27.90;;;;;;4870436;29;19944;-63
2022/03/18 11:23:18;;;;;;;;;;;26.20;28.00;;;;;;4866523;29;20576;-62
2022/03/18 11:25:46;;;;;;;;;;;26.20;28.10;;;;;;4882094;29;21322;-63
2022/03/18 11:28:15;;;;;;;;;;;26.10;27.90;;;;;;4867782;29;20661;-62
2022/03/18 11:30:43;;;;;;;;;;;26.10;28.00;;;;;;4860544;29;19984;-61
2022/03/18 11:33:18;;;;;;;;;;;26.10;27.90;;;;;;4863320;29;19971;-62
2022/03/18 11:36:05;;;;;;;;;;;26.10;27.70;;;;;;4863563;29;19969;-60
2022/03/18 11:38:52;;;;;;;;;;;26.00;28.00;;;;;;4869601;29;19984;-63
2022/03/18 11:41:19;;;;;;;;;;;26.00;28.20;;;;;;4870270;29;19936;-60
2022/03/18 11:43:49;;;;;;;;;;;26.00;28.30;;;;;;4870672;29;20034;-59
2022/03/18 11:46:21;;;;;;;;;;;26.00;28.30;;;;;;4870160;29;19987;-58
2022/03/18 11:48:49;;;;;;;;;;;26.00;28.30;;;;;;4869378;29;19930;-63
2022/03/18 11:51:27;;;;;;;;;;;26.00;28.30;;;;;;4864719;29;20020;-62
2022/03/18 11:53:54;;;;;;;;;;;26.10;28.30;;;;;;4865420;29;19965;-60
2022/03/18 11:56:23;;;;;;;;;;;26.10;28.20;;;;;;4864405;29;19955;-60
2022/03/18 11:59:28;;;;;;;;;;;26.10;28.20;;;;;;4866968;29;19984;-64
2022/03/18 12:02:06;;;;;;;;;;;26.10;28.20;;;;;;4867927;29;20586;-63
2022/03/18 12:04:39;;;;;;;;;;;26.20;28.10;;;;;;4875982;29;19950;-64
2022/03/18 12:07:13;;;;;;;;;;;26.20;28.10;;;;;;4866558;29;20019;-61
2022/03/18 12:09:50;;;;;;;;;;;26.20;28.00;;;;;;4863794;29;19940;-60
2022/03/18 12:12:18;;;;;;;;;;;26.20;27.90;;;;;;4865919;29;19928;-60
2022/03/18 12:14:46;;;;;;;;;;;26.30;28.00;;;;;;4867093;29;19935;-59
2022/03/18 12:17:13;;;;;;;;;;;26.30;28.00;;;;;;4866581;29;19950;-62
2022/03/18 12:19:49;;;;;;;;;;;26.40;28.10;;;;;;4870315;29;19928;-58
2022/03/18 12:22:17;;;;;;;;;;;26.40;28.10;;;;;;4863044;29;20014;-59
2022/03/18 12:24:44;;;;;;;;;;;26.50;28.10;;;;;;4863809;29;19983;-61
2022/03/18 12:27:11;;;;;;;;;;;26.50;27.90;;;;;;4870905;29;19935;-59
2022/03/18 12:29:38;;;;;;;;;;;26.50;27.90;;;;;;4867949;29;19932;-58
2022/03/18 12:32:09;;;;;;;;;;;26.50;27.90;;;;;;4861033;29;19936;-59
2022/03/18 12:34:46;;;;;;;;;;;26.50;28.00;;;;;;4868223;29;19936;-63
2022/03/18 12:37:17;;;;;;;;;;;26.60;28.00;;;;;;4868528;29;19927;-58
2022/03/18 12:42:53;;;;;;;;;;;26.60;27.90;;;;;;4869238;29;19936;-59
2022/03/18 12:45:24;;;;;;;;;;;26.60;28.00;;;;;;4876150;29;20366;-58
2022/03/18 12:47:52;;;;;;;;;;;26.60;27.90;;;;;;4869373;29;19928;-58
2022/03/18 12:50:19;;;;;;;;;;;26.50;27.90;;;;;;4873887;29;19928;-59
2022/03/18 12:52:47;;;;;;;;;;;26.60;28.00;;;;;;4869353;29;19935;-65
2022/03/18 12:55:17;;;;;;;;;;;26.60;28.00;;;;;;4873275;29;19975;-62
2022/03/18 12:57:44;;;;;;;;;;;26.50;28.00;;;;;;4867129;29;20090;-64
2022/03/18 13:00:11;;;;;;;;;;;26.50;28.00;;;;;;4873869;29;19963;-63
2022/03/18 13:09:48;;;;;;;;;;;26.50;27.90;;;;;;4873543;29;19940;-64
2022/03/18 13:12:22;;;;;;;;;;;26.50;27.90;;;;;;4878766;29;19935;-61
2022/03/18 13:14:53;;;;;;;;;;;26.40;27.70;;;;;;4884173;29;19928;-64
2022/03/18 13:17:22;;;;;;;;;;;26.40;27.70;;;;;;4884589;29;19927;-66
2022/03/18 13:23:11;;;;;;;;;;;26.30;27.70;;;;;;4883659;29;19923;-65
2022/03/18 13:25:40;;;;;;;;;;;26.20;27.60;;;;;;4883404;29;19978;-61
2022/03/18 13:28:08;;;;;;;;;;;26.20;27.60;;;;;;4879943;29;19935;-64
2022/03/18 13:33:45;;;;;;;;;;;26.10;27.60;;;;;;4875906;29;19975;-61
2022/03/18 13:36:24;;;;;;;;;;;26.10;27.70;;;;;;4871386;29;19935;-64
2022/03/18 13:38:51;;;;;;;;;;;26.00;27.80;;;;;;4871444;29;19928;-64
2022/03/18 13:41:18;;;;;;;;;;;26.00;27.90;;;;;;4875953;29;19967;-65
2022/03/18 13:50:19;;;;;;;;;;;25.90;28.30;;;;;;4870967;29;20298;-64
2022/03/18 13:52:48;;;;;;;;;;;25.90;28.40;;;;;;4901433;29;19974;-64
2022/03/18 13:55:27;;;;;;;;;;;25.90;28.30;;;;;;4897928;29;19947;-64
2022/03/18 13:57:55;;;;;;;;;;;25.90;28.30;;;;;;4900947;29;19928;-63
2022/03/18 14:00:30;;;;;;;;;;;25.90;28.30;;;;;;4902766;29;19934;-63
2022/03/18 14:03:03;;;;;;;;;;;25.80;28.40;;;;;;4902694;29;19989;-63
2022/03/18 14:05:33;;;;;;;;;;;25.80;28.80;;;;;;4887056;29;19928;-62
2022/03/18 14:08:01;;;;;;;;;;;25.70;28.90;;;;;;4902757;29;19935;-62
2022/03/18 14:10:36;;;;;;;;;;;25.70;29.70;;;;;;4902773;29;19928;-62
2022/03/18 14:13:06;;;;;;;;;;;25.70;30.40;;;;;;4902313;29;19927;-62
2022/03/18 14:15:34;;;;;;;;;;;25.70;31.10;;;;;;4902680;29;20310;-62
2022/03/18 14:18:04;;;;;;;;;;;25.60;31.10;;;;;;4902128;29;19975;-62
2022/03/18 14:20:34;;;;;;;;;;;25.60;31.30;;;;;;4902695;29;19934;-62
2022/03/18 14:23:15;;;;;;;;;;;25.60;31.50;;;;;;4902184;29;20392;-62
2022/03/18 14:25:42;;;;;;;;;;;25.60;30.90;;;;;;4902375;29;19928;-62
2022/03/18 14:28:15;;;;;;;;;;;25.60;30.20;;;;;;4901964;29;20385;-62
2022/03/18 14:30:42;;;;;;;;;;;25.60;29.70;;;;;;4902500;29;19975;-63
2022/03/18 14:33:16;;;;;;;;;;;25.50;29.30;;;;;;4901809;29;19934;-63
2022/03/18 14:35:43;;;;;;;;;;;25.50;29.50;;;;;;4901259;29;19974;-63
2022/03/18 14:38:10;;;;;;;;;;;25.50;29.20;;;;;;4902711;29;19935;-63
2022/03/18 14:40:37;;;;;;;;;;;25.60;28.60;;;;;;4902582;29;19977;-62
2022/03/18 14:43:05;;;;;;;;;;;25.60;28.40;;;;;;4902062;29;20415;-62
2022/03/18 14:45:32;;;;;;;;;;;25.50;28.30;;;;;;4902165;29;19932;-63
2022/03/18 14:48:00;;;;;;;;;;;25.50;28.20;;;;;;4902010;29;19934;-62
2022/03/18 14:50:27;;;;;;;;;;;25.50;28.10;;;;;;4902172;29;19978;-63
2022/03/18 14:52:56;;;;;;;;;;;25.50;28.00;;;;;;4900966;29;19970;-63
2022/03/18 14:58:10;;;;;;;;;;;25.50;27.90;;;;;;4902155;29;19994;-63
2022/03/18 15:00:38;;;;;;;;;;;25.50;27.90;;;;;;4902195;29;20018;-63
2022/03/18 15:03:07;;;;;;;;;;;25.50;27.90;;;;;;4902261;29;19955;-63
2022/03/18 15:05:35;;;;;;;;;;;25.50;27.80;;;;;;4902210;29;19935;-63
2022/03/18 15:08:03;;;;;;;;;;;25.40;27.70;;;;;;4901668;29;19927;-63
2022/03/18 15:10:31;;;;;;;;;;;25.40;27.70;;;;;;4901933;29;19927;-63
2022/03/18 15:13:00;;;;;;;;;;;25.40;27.70;;;;;;4901752;29;19982;-62
2022/03/18 15:15:27;;;;;;;;;;;25.40;28.10;;;;;;4900771;29;19983;-61
2022/03/18 15:17:54;;;;;;;;;;;25.40;27.70;;;;;;4901667;29;19979;-62
2022/03/18 15:20:21;;;;;;;;;;;25.30;27.60;;;;;;4902073;29;19927;-62
2022/03/18 15:22:49;;;;;;;;;;;25.30;27.60;;;;;;4901972;29;19950;-62
2022/03/18 15:25:17;;;;;;;;;;;25.30;27.60;;;;;;4901839;29;19931;-63
2022/03/18 15:27:44;;;;;;;;;;;25.30;27.50;;;;;;4901674;29;19934;-62